createdAt,value
2024-05-09T00:11:00.036Z,0
2024-05-09T00:25:55.775Z,0
2024-05-09T00:40:51.781Z,0
2024-05-09T00:55:48.010Z,0
2024-05-09T01:10:45.043Z,0
2024-05-09T01:25:39.905Z,0
2024-05-09T01:40:36.902Z,0
2024-05-09T01:55:31.017Z,0
2024-05-09T02:25:23.078Z,0
2024-05-09T02:40:25.362Z,0
2024-05-09T03:10:17.874Z,0.01
2024-05-09T03:25:08.314Z,0.01
2024-05-09T03:40:07.313Z,0.02
2024-05-09T03:55:01.501Z,0.02
2024-05-09T04:09:57.262Z,0.02
2024-05-09T04:24:53.392Z,0.03
2024-05-09T04:39:50.356Z,0.02
2024-05-09T04:54:46.325Z,0.05
2024-05-09T05:09:42.533Z,0.02
2024-05-09T05:24:39.006Z,0.07
2024-05-09T05:39:35.375Z,0.08
2024-05-09T05:54:32.070Z,0.08
2024-05-09T06:09:28.409Z,0.1
2024-05-09T06:24:24.808Z,0.1
2024-05-09T06:39:21.650Z,0.1
2024-05-09T06:54:17.782Z,0.1
2024-05-09T07:09:14.133Z,0.11
2024-05-09T07:24:10.061Z,0.14
2024-05-09T07:39:06.762Z,0.18
2024-05-09T07:54:04.175Z,0.11
2024-05-09T08:09:02.969Z,0.16
2024-05-09T08:23:56.238Z,0.18
2024-05-09T08:38:53.314Z,0.3
2024-05-09T08:53:49.886Z,0.37
2024-05-09T09:08:46.766Z,0.54
2024-05-09T09:23:43.988Z,0.7
2024-05-09T09:38:40.616Z,0.81
2024-05-09T09:53:38.165Z,0.89
2024-05-09T10:08:35.343Z,0.93
2024-05-09T10:23:32.034Z,0.99
2024-05-09T10:38:28.404Z,1.15
2024-05-09T10:53:24.726Z,0.71
2024-05-09T11:08:21.132Z,0.39
2024-05-09T11:23:17.371Z,1.68
2024-05-09T11:38:13.923Z,1.89
2024-05-09T11:53:10.752Z,1.25
2024-05-09T12:08:06.798Z,0.32
2024-05-09T12:23:03.486Z,0.34
2024-05-09T12:38:00.266Z,2.09
2024-05-09T12:52:56.522Z,0.9
2024-05-09T13:07:52.777Z,1
2024-05-09T13:22:48.997Z,0.26
2024-05-09T13:37:44.993Z,0.3
2024-05-09T13:52:41.506Z,0.21
2024-05-09T14:07:36.709Z,0.2
2024-05-09T14:22:32.607Z,0.12
2024-05-09T14:37:28.103Z,0.16
2024-05-09T14:52:24.744Z,0.19
2024-05-09T15:07:21.220Z,0.16
2024-05-09T15:22:17.396Z,0.11
2024-05-09T15:37:13.552Z,0.29
2024-05-09T15:52:10.445Z,0.17
2024-05-09T16:07:06.378Z,0.1
2024-05-09T16:22:02.172Z,0.1
2024-05-09T16:36:58.682Z,0.08
2024-05-09T16:51:54.937Z,0.1
2024-05-09T17:06:51.243Z,0.1
2024-05-09T17:21:47.399Z,0.07
2024-05-09T17:36:43.496Z,0.09
2024-05-09T17:51:39.715Z,0.06
2024-05-09T18:06:35.853Z,0.04
2024-05-09T18:21:31.790Z,0.05
2024-05-09T18:36:28.286Z,0.03
2024-05-09T18:51:24.226Z,0.02
2024-05-09T19:06:22.763Z,0.02
2024-05-09T19:21:16.402Z,0.02
2024-05-09T19:36:12.265Z,0.01
2024-05-09T19:51:08.350Z,0.01
2024-05-09T20:06:03.851Z,0.01
2024-05-09T20:20:59.731Z,0
2024-05-09T20:35:55.594Z,0
2024-05-09T20:50:50.878Z,0
2024-05-09T21:05:47.372Z,0
2024-05-09T21:21:02.909Z,0
2024-05-09T21:35:39.028Z,0
2024-05-09T21:50:38.903Z,0
2024-05-09T22:05:31.370Z,0
2024-05-09T22:20:29.362Z,0
2024-05-09T22:35:22.928Z,0
2024-05-09T22:50:22.736Z,0
2024-05-09T23:05:14.500Z,0
2024-05-09T23:35:06.475Z,0
2024-05-09T23:50:03.854Z,0
